Time;durP1;ratioP1;P1;durP2;ratioP2;P2;SDS_P1;SDS_P2;PMS_P1;PMS_P2;Temp;Humidity;BMP_temperature;BMP_pressure;BME280_temperature;BME280_humidity;BME280_pressure;Samples;Min_cycle;Max_cycle;Signal;HPM_P1;HPM_P2
2023/09/27 00:01:17;;;;;;;143.77;14.88;;;;;;;9.54;100.00;94431.75;5045290;28;20095;-59
2023/09/27 00:03:44;;;;;;;112.63;13.97;;;;;;;9.45;100.00;94429.41;5030310;28;20042;-58
2023/09/27 00:06:11;;;;;;;79.20;14.25;;;;;;;9.52;100.00;94429.38;5030776;28;20049;-59
2023/09/27 00:08:38;;;;;;;123.45;15.32;;;;;;;9.38;100.00;94429.44;5030842;28;20076;-58
2023/09/27 00:11:05;;;;;;;86.93;14.75;;;;;;;9.54;100.00;94429.78;5030246;28;20072;-59
2023/09/27 00:13:32;;;;;;;256.23;17.58;;;;;;;9.43;100.00;94414.53;5030330;28;20254;-59
2023/09/27 00:15:59;;;;;;;34.33;13.00;;;;;;;9.45;100.00;94418.44;5030048;28;20052;-59
2023/09/27 00:18:26;;;;;;;112.20;13.02;;;;;;;9.55;100.00;94425.84;5030118;28;20044;-61
2023/09/27 00:20:53;;;;;;;95.40;13.35;;;;;;;9.58;100.00;94418.81;5029927;28;20122;-61
2023/09/27 00:23:19;;;;;;;85.53;16.17;;;;;;;9.59;100.00;94420.34;5030103;28;20038;-60
2023/09/27 00:25:46;;;;;;;138.73;14.73;;;;;;;9.25;100.00;94412.63;5029573;28;20059;-58
2023/09/27 00:28:13;;;;;;;135.00;14.50;;;;;;;8.98;100.00;94420.50;5032770;28;20482;-58
2023/09/27 00:30:40;;;;;;;390.95;19.65;;;;;;;9.07;100.00;94418.13;5041989;28;20468;-58
2023/09/27 00:33:07;;;;;;;124.90;14.40;;;;;;;9.16;100.00;94423.22;5045419;28;20041;-58
2023/09/27 00:35:34;;;;;;;30.80;13.30;;;;;;;9.35;100.00;94441.16;5038203;28;20049;-58
2023/09/27 00:38:02;;;;;;;49.75;13.18;;;;;;;9.45;100.00;94447.81;5040284;28;20041;-58
2023/09/27 00:40:29;;;;;;;75.30;13.00;;;;;;;9.27;100.00;94450.56;5043457;28;20045;-59
2023/09/27 00:42:57;;;;;;;65.88;11.93;;;;;;;9.16;100.00;94445.91;5039468;28;20138;-61
2023/09/27 00:45:23;;;;;;;86.00;11.63;;;;;;;9.03;100.00;94443.94;5041302;28;20045;-61
2023/09/27 00:47:51;;;;;;;110.25;12.60;;;;;;;9.23;100.00;94450.56;5040286;28;20612;-61
2023/09/27 00:50:18;;;;;;;33.38;11.65;;;;;;;9.32;100.00;94445.47;5037884;28;20414;-60
2023/09/27 00:52:46;;;;;;;110.40;13.13;;;;;;;9.23;100.00;94444.31;5037763;28;20050;-58
2023/09/27 00:55:16;;;;;;;26.27;10.80;;;;;;;9.23;100.00;94441.59;5041618;28;20048;-58
2023/09/27 00:57:44;;;;;;;47.30;11.25;;;;;;;9.33;100.00;94441.56;5041373;28;20764;-58
2023/09/27 01:00:12;;;;;;;88.15;11.73;;;;;;;9.28;100.00;94436.50;5037233;28;20583;-58
2023/09/27 01:02:40;;;;;;;67.63;11.20;;;;;;;9.26;100.00;94419.69;5037766;28;20049;-58
2023/09/27 01:05:10;;;;;;;38.93;10.80;;;;;;;9.27;100.00;94425.94;5040644;28;20059;-58
2023/09/27 01:07:38;;;;;;;57.30;10.43;;;;;;;9.19;100.00;94425.97;5041263;28;20049;-59
2023/09/27 01:10:07;;;;;;;28.88;9.55;;;;;;;9.18;100.00;94420.88;5037792;28;20056;-60
2023/09/27 01:12:36;;;;;;;43.42;9.95;;;;;;;9.14;100.00;94425.56;5037407;28;20441;-59
2023/09/27 01:15:05;;;;;;;75.00;10.60;;;;;;;9.09;100.00;94428.69;5039874;28;20396;-59
2023/09/27 01:17:32;;;;;;;90.27;11.37;;;;;;;9.00;100.00;94421.66;5040782;28;20375;-62
2023/09/27 01:19:59;;;;;;;99.05;11.98;;;;;;;8.89;100.00;94433.78;5034773;28;20037;-59
2023/09/27 01:22:26;;;;;;;74.32;12.00;;;;;;;8.87;100.00;94438.88;5018050;28;20040;-59
2023/09/27 01:24:54;;;;;;;95.22;12.38;;;;;;;8.97;100.00;94435.34;5009333;28;20045;-60
2023/09/27 01:27:22;;;;;;;129.48;13.10;;;;;;;9.07;100.00;94436.53;5013011;28;20482;-60
2023/09/27 01:29:49;;;;;;;194.03;14.40;;;;;;;9.09;100.00;94432.22;5028865;28;20046;-60
2023/09/27 01:32:17;;;;;;;84.57;11.40;;;;;;;9.13;100.00;94441.19;5029268;28;20517;-60
2023/09/27 01:34:44;;;;;;;121.80;12.00;;;;;;;9.05;100.00;94430.66;5028838;28;20171;-60
2023/09/27 01:37:11;;;;;;;54.97;9.63;;;;;;;8.88;100.00;94430.28;5029133;28;20045;-60
2023/09/27 01:39:38;;;;;;;177.95;13.60;;;;;;;8.73;100.00;94432.25;5028530;28;20054;-60
2023/09/27 01:42:04;;;;;;;66.13;9.83;;;;;;;8.82;100.00;94431.84;5028397;28;20053;-60
2023/09/27 01:44:31;;;;;;;29.58;9.30;;;;;;;8.90;100.00;94432.63;5028805;28;20048;-60
2023/09/27 01:46:58;;;;;;;69.15;9.85;;;;;;;8.93;100.00;94435.38;5028482;28;20046;-60
2023/09/27 01:49:25;;;;;;;44.05;9.95;;;;;;;8.84;100.00;94436.94;5028582;28;20042;-60
2023/09/27 01:51:52;;;;;;;65.07;10.82;;;;;;;8.71;100.00;94437.34;5028398;28;20466;-60
2023/09/27 01:54:19;;;;;;;55.07;10.23;;;;;;;8.75;100.00;94442.78;5028665;28;20433;-60
2023/09/27 01:56:46;;;;;;;44.88;9.45;;;;;;;8.63;100.00;94449.41;5043436;28;20041;-60
2023/09/27 01:59:13;;;;;;;39.92;9.63;;;;;;;8.72;100.00;94452.56;5028954;28;20041;-60
2023/09/27 02:01:40;;;;;;;109.05;10.13;;;;;;;8.45;100.00;94449.44;5028424;28;20045;-60
2023/09/27 02:04:07;;;;;;;23.95;8.95;;;;;;;8.43;100.00;94442.75;5028307;28;20045;-60
2023/09/27 02:06:34;;;;;;;77.93;10.03;;;;;;;8.56;100.00;94441.22;5028414;28;20041;-60
2023/09/27 02:09:00;;;;;;;27.20;9.00;;;;;;;8.66;100.00;94445.16;5043326;28;20049;-60
2023/09/27 02:11:27;;;;;;;27.52;9.25;;;;;;;8.72;100.00;94449.06;5028420;28;20537;-60
2023/09/27 02:13:54;;;;;;;51.33;9.00;;;;;;;8.68;100.00;94448.28;5028481;28;20045;-60
2023/09/27 02:16:21;;;;;;;86.22;9.90;;;;;;;8.29;100.00;94432.53;5028587;28;20034;-60
2023/09/27 02:18:49;;;;;;;33.97;9.00;;;;;;;8.33;100.00;94441.53;5028298;28;20083;-60
2023/09/27 02:21:16;;;;;;;32.05;8.32;;;;;;;8.37;100.00;94445.06;5028598;28;20044;-60
2023/09/27 02:23:42;;;;;;;29.30;8.10;;;;;;;8.24;100.00;94447.38;5028482;28;20046;-60
2023/09/27 02:26:09;;;;;;;26.00;8.27;;;;;;;8.26;100.00;94447.00;5027787;28;20041;-60
2023/09/27 02:28:36;;;;;;;52.60;9.48;;;;;;;8.22;100.00;94438.03;5028513;28;20045;-60
2023/09/27 02:31:08;;;;;;;42.30;9.07;;;;;;;8.24;100.00;94435.69;5028150;28;20049;-60
2023/09/27 02:33:37;;;;;;;80.45;10.52;;;;;;;8.25;100.00;94429.03;5028219;28;20049;-61
2023/09/27 02:36:04;;;;;;;52.78;8.57;;;;;;;8.24;100.00;94430.22;5027930;28;20046;-60
2023/09/27 02:38:32;;;;;;;16.70;7.95;;;;;;;8.30;100.00;94440.38;5027236;28;20046;-60
2023/09/27 02:40:58;;;;;;;26.48;8.13;;;;;;;8.16;100.00;94446.59;5027985;28;20053;-58
2023/09/27 02:43:25;;;;;;;81.57;9.47;;;;;;;7.87;100.00;94448.47;5028447;28;20091;-58
2023/09/27 02:45:52;;;;;;;62.65;9.63;;;;;;;7.81;100.00;94452.75;5028031;28;20047;-58
2023/09/27 02:48:19;;;;;;;33.00;9.70;;;;;;;7.99;100.00;94455.53;5028354;28;20041;-58
2023/09/27 02:50:49;;;;;;;22.13;9.23;;;;;;;8.07;100.00;94454.38;5026529;28;20049;-58
2023/09/27 02:53:16;;;;;;;49.78;10.18;;;;;;;8.20;100.00;94452.84;5031652;28;20045;-58
2023/09/27 02:55:43;;;;;;;65.40;9.73;;;;;;;8.14;100.00;94450.88;5031920;28;20046;-57
2023/09/27 02:58:10;;;;;;;28.25;9.55;;;;;;;8.19;100.00;94451.28;5031235;28;20052;-58
2023/09/27 03:00:36;;;;;;;82.72;11.18;;;;;;;8.20;100.00;94452.06;5030414;28;20041;-58
2023/09/27 03:03:03;;;;;;;29.55;9.55;;;;;;;8.08;100.00;94447.75;5031712;28;20048;-58
2023/09/27 03:05:35;;;;;;;30.90;9.10;;;;;;;8.07;100.00;94457.13;5032509;28;20475;-59
2023/09/27 03:08:03;;;;;;;18.27;8.90;;;;;;;8.03;100.00;94463.72;5031682;28;20045;-58
2023/09/27 03:10:31;;;;;;;40.88;8.75;;;;;;;7.86;100.00;94462.50;5032518;28;20053;-58
2023/09/27 03:12:58;;;;;;;42.60;8.65;;;;;;;7.80;100.00;94453.88;5031484;28;20410;-58
2023/09/27 03:15:25;;;;;;;35.92;8.75;;;;;;;7.70;100.00;94451.91;5031364;28;20099;-60
2023/09/27 03:17:52;;;;;;;25.50;8.85;;;;;;;7.84;100.00;94456.63;5031250;28;20621;-60
2023/09/27 03:20:19;;;;;;;23.90;8.07;;;;;;;7.81;100.00;94450.00;5031553;28;20402;-60
2023/09/27 03:22:47;;;;;;;28.27;8.40;;;;;;;7.82;100.00;94451.56;5029435;28;20417;-60
2023/09/27 03:25:17;;;;;;;27.17;8.43;;;;;;;7.86;100.00;94459.78;5031645;28;20106;-60
2023/09/27 03:27:45;;;;;;;46.90;8.52;;;;;;;7.88;100.00;94447.28;5031115;28;20056;-60
2023/09/27 03:30:12;;;;;;;45.20;8.40;;;;;;;7.66;100.00;94442.91;5030657;28;21608;-60
2023/09/27 03:32:39;;;;;;;66.37;9.20;;;;;;;7.65;100.00;94450.31;5031297;28;20049;-60
2023/09/27 03:35:07;;;;;;;44.28;9.07;;;;;;;7.65;100.00;94444.88;5031112;28;20045;-60
2023/09/27 03:37:35;;;;;;;35.40;9.95;;;;;;;7.62;100.00;94439.38;5031037;28;20049;-61
2023/09/27 03:40:03;;;;;;;58.30;9.00;;;;;;;7.62;100.00;94444.84;5030683;28;20049;-60
2023/09/27 03:42:32;;;;;;;19.13;8.68;;;;;;;7.58;100.00;94444.81;5030810;28;20116;-60
2023/09/27 03:44:59;;;;;;;29.53;8.13;;;;;;;7.62;100.00;94445.63;5030831;28;20041;-60
2023/09/27 03:47:26;;;;;;;16.92;8.15;;;;;;;7.55;100.00;94438.19;5030922;28;20136;-60
2023/09/27 03:49:53;;;;;;;35.90;8.07;;;;;;;7.46;100.00;94435.00;5030494;28;20072;-60
2023/09/27 03:52:19;;;;;;;26.27;7.65;;;;;;;7.40;100.00;94431.88;5031085;28;20049;-60
2023/09/27 03:54:46;;;;;;;43.30;8.20;;;;;;;7.49;100.00;94436.97;5030443;28;20144;-60
2023/09/27 03:57:13;;;;;;;37.10;8.30;;;;;;;7.42;100.00;94433.44;5030707;28;20059;-60
2023/09/27 03:59:40;;;;;;;62.83;9.40;;;;;;;7.24;100.00;94438.78;5030936;28;20053;-60
2023/09/27 04:02:06;;;;;;;29.10;8.35;;;;;;;7.35;100.00;94443.16;5030187;28;20047;-60
2023/09/27 04:04:33;;;;;;;32.78;8.65;;;;;;;7.40;100.00;94447.47;5030541;28;20049;-60
2023/09/27 04:07:00;;;;;;;52.40;9.13;;;;;;;7.40;100.00;94447.47;5030288;28;20517;-60
2023/09/27 04:09:27;;;;;;;119.37;10.77;;;;;;;7.16;100.00;94460.59;5030508;28;20042;-60
2023/09/27 04:11:55;;;;;;;86.00;9.95;;;;;;;7.05;100.00;94454.28;5030480;28;20045;-60
2023/09/27 04:14:22;;;;;;;109.50;12.30;;;;;;;7.11;100.00;94463.66;5030589;28;20055;-60
2023/09/27 04:16:49;;;;;;;35.35;8.95;;;;;;;7.30;100.00;94470.03;5029611;28;20046;-60
2023/09/27 04:19:16;;;;;;;28.90;10.35;;;;;;;7.45;100.00;94462.72;5030583;28;20037;-60
2023/09/27 04:21:42;;;;;;;37.73;9.07;;;;;;;7.42;100.00;94466.19;5030156;28;20047;-60
2023/09/27 04:24:09;;;;;;;31.08;8.70;;;;;;;7.40;100.00;94458.38;5029498;28;20037;-60
2023/09/27 04:26:36;;;;;;;37.60;8.18;;;;;;;7.39;100.00;94454.09;5029945;28;20045;-60
2023/09/27 04:29:04;;;;;;;52.25;7.75;;;;;;;7.03;100.00;94453.88;5044910;28;20045;-60
2023/09/27 04:31:34;;;;;;;44.58;8.88;;;;;;;7.02;100.00;94457.75;5028950;28;20054;-60
2023/09/27 04:34:01;;;;;;;33.53;8.43;;;;;;;7.10;100.00;94453.94;5029702;28;20039;-60
2023/09/27 04:36:28;;;;;;;41.13;9.07;;;;;;;7.03;100.00;94448.41;5029945;28;20054;-59
2023/09/27 04:38:54;;;;;;;52.47;9.60;;;;;;;7.06;100.00;94457.78;5029592;28;20057;-60
2023/09/27 04:41:21;;;;;;;66.90;10.32;;;;;;;7.10;100.00;94466.78;5029881;28;20522;-60
2023/09/27 04:43:48;;;;;;;44.38;9.70;;;;;;;7.22;100.00;94471.16;5029043;28;20308;-60
2023/09/27 04:46:17;;;;;;;19.90;9.10;;;;;;;7.33;100.00;94472.78;5030278;28;20037;-60
2023/09/27 04:48:45;;;;;;;39.83;9.25;;;;;;;7.35;100.00;94475.13;5029322;28;20041;-59
2023/09/27 04:51:11;;;;;;;51.22;9.82;;;;;;;7.45;100.00;94479.88;5023599;28;20052;-60
2023/09/27 04:53:38;;;;;;;40.97;9.00;;;;;;;7.52;100.00;94479.91;5017851;28;20060;-60
2023/09/27 04:56:06;;;;;;;80.40;9.35;;;;;;;7.20;100.00;94477.78;5009434;28;20046;-60
2023/09/27 04:58:33;;;;;;;50.10;9.27;;;;;;;7.32;100.00;94479.38;5015249;28;20058;-60
2023/09/27 05:01:05;;;;;;;96.70;10.35;;;;;;;7.43;100.00;94476.75;5020381;28;20056;-60
2023/09/27 05:03:32;;;;;;;38.55;9.85;;;;;;;7.33;100.00;94472.00;5029716;28;20060;-60
2023/09/27 05:05:59;;;;;;;56.95;8.93;;;;;;;7.14;100.00;94473.84;5029206;28;20102;-60
2023/09/27 05:08:26;;;;;;;85.93;10.13;;;;;;;7.15;100.00;94480.06;5029708;28;20106;-60
2023/09/27 05:10:54;;;;;;;69.83;9.40;;;;;;;7.14;100.00;94484.75;5029325;28;20045;-60
2023/09/27 05:13:22;;;;;;;80.60;9.50;;;;;;;7.27;100.00;94479.00;5029814;28;20064;-60
2023/09/27 05:15:49;;;;;;;24.10;8.07;;;;;;;7.28;100.00;94480.53;5028300;28;20047;-60
2023/09/27 05:18:16;;;;;;;40.22;8.13;;;;;;;7.35;100.00;94478.66;5029748;28;20048;-61
2023/09/27 05:20:46;;;;;;;80.88;9.60;;;;;;;7.30;100.00;94480.94;5029021;28;20083;-61
2023/09/27 05:23:12;;;;;;;50.87;8.30;;;;;;;7.45;100.00;94479.88;5027347;28;20597;-61
2023/09/27 05:25:41;;;;;;;27.23;8.13;;;;;;;7.58;100.00;94478.38;5029074;28;20037;-61
2023/09/27 05:28:09;;;;;;;37.58;8.63;;;;;;;7.54;100.00;94485.75;5028493;28;20049;-60
2023/09/27 05:30:36;;;;;;;80.30;9.45;;;;;;;7.27;100.00;94490.69;5028928;28;20041;-60
2023/09/27 05:33:06;;;;;;;83.25;9.38;;;;;;;7.28;100.00;94483.28;5028616;28;20049;-60
2023/09/27 05:35:32;;;;;;;88.30;9.00;;;;;;;7.23;100.00;94489.09;5030254;28;20050;-60
2023/09/27 05:38:00;;;;;;;53.83;8.75;;;;;;;7.32;100.00;94492.28;5037457;28;20037;-60
2023/09/27 05:40:27;;;;;;;59.72;9.73;;;;;;;7.38;100.00;94498.94;5039542;28;20063;-61
2023/09/27 05:42:54;;;;;;;33.58;8.70;;;;;;;7.37;100.00;94489.19;5036565;28;20052;-61
2023/09/27 05:45:21;;;;;;;25.52;8.20;;;;;;;7.49;100.00;94488.09;5037813;28;20044;-61
2023/09/27 05:47:48;;;;;;;96.83;9.70;;;;;;;7.39;100.00;94487.63;5034176;28;20045;-61
2023/09/27 05:50:15;;;;;;;158.27;10.68;;;;;;;7.31;100.00;94493.44;5038365;28;20098;-61
2023/09/27 05:52:44;;;;;;;57.28;9.40;;;;;;;7.46;100.00;94489.63;5038818;28;20053;-61
2023/09/27 05:55:13;;;;;;;72.57;9.77;;;;;;;7.48;100.00;94494.72;5008096;28;21542;-61
2023/09/27 05:57:40;;;;;;;28.40;8.75;;;;;;;7.64;100.00;94500.66;5008535;28;20446;-61
2023/09/27 06:00:19;;;;;;;33.53;8.50;;;;;;;7.72;100.00;94501.47;5018785;28;20045;-60
2023/09/27 06:02:47;;;;;;;48.42;8.70;;;;;;;7.57;100.00;94497.91;5024760;28;20038;-60
2023/09/27 06:05:14;;;;;;;36.58;9.10;;;;;;;7.49;100.00;94509.94;5007231;28;20050;-60
2023/09/27 06:07:41;;;;;;;83.43;8.73;;;;;;;7.49;100.00;94507.22;5008425;28;20053;-60
2023/09/27 06:10:08;;;;;;;50.25;9.52;;;;;;;7.74;100.00;94510.06;5008478;28;20042;-60
2023/09/27 06:12:35;;;;;;;57.90;8.93;;;;;;;7.95;100.00;94504.72;5008605;28;20128;-60
2023/09/27 06:15:02;;;;;;;32.38;8.50;;;;;;;7.98;100.00;94500.41;5006555;28;20054;-61
2023/09/27 06:17:29;;;;;;;69.25;9.38;;;;;;;8.13;100.00;94518.44;5009035;28;20050;-61
2023/09/27 06:19:56;;;;;;;68.82;9.77;;;;;;;8.07;100.00;94505.53;5008222;28;20050;-61
2023/09/27 06:22:23;;;;;;;32.20;9.13;;;;;;;8.34;100.00;94511.47;5009067;28;20449;-61
2023/09/27 06:24:50;;;;;;;62.47;9.70;;;;;;;8.59;100.00;94514.28;5008444;28;20406;-61
2023/09/27 06:27:16;;;;;;;25.17;9.27;;;;;;;8.45;100.00;94511.53;5015669;28;20118;-61
2023/09/27 06:29:43;;;;;;;55.22;9.68;;;;;;;8.83;100.00;94504.56;5032785;28;20487;-60
2023/09/27 06:32:10;;;;;;;60.10;9.68;;;;;;;8.71;100.00;94510.41;5031105;28;20863;-61
2023/09/27 06:34:37;;;;;;;26.45;10.02;;;;;;;8.91;100.00;94510.81;5032687;28;20059;-61
2023/09/27 06:37:07;;;;;;;56.20;9.23;;;;;;;9.09;100.00;94497.91;5031696;28;20126;-61
2023/09/27 06:39:34;;;;;;;72.50;10.15;;;;;;;9.30;100.00;94501.84;5032911;28;20406;-60
2023/09/27 06:42:02;;;;;;;58.65;9.75;;;;;;;9.38;100.00;94492.44;5031834;28;20559;-61
2023/09/27 06:44:29;;;;;;;42.90;8.63;;;;;;;9.55;100.00;94491.59;5032517;28;20045;-61
2023/09/27 06:46:55;;;;;;;18.00;7.53;;;;;;;9.53;100.00;94491.22;5031994;28;20053;-61
2023/09/27 06:49:22;;;;;;;49.73;8.83;;;;;;;9.63;100.00;94480.63;5032440;28;20095;-61
2023/09/27 06:51:49;;;;;;;24.83;8.45;;;;;;;9.98;100.00;94486.00;5030604;28;20508;-61
2023/09/27 06:54:16;;;;;;;26.25;8.25;;;;;;;9.77;100.00;94486.84;5032108;28;20052;-61
2023/09/27 06:56:42;;;;;;;18.90;7.75;;;;;;;9.83;100.00;94484.50;5031570;28;20041;-61
2023/09/27 06:59:10;;;;;;;38.35;8.20;;;;;;;9.88;100.00;94486.84;5031463;28;20861;-60
2023/09/27 07:01:37;;;;;;;63.67;9.10;;;;;;;10.05;100.00;94490.69;5031843;28;20057;-61
2023/09/27 07:04:05;;;;;;;25.70;9.18;;;;;;;9.87;100.00;94498.19;5031715;28;20067;-60
2023/09/27 07:06:32;;;;;;;64.97;9.80;;;;;;;10.33;100.00;94498.03;5047431;28;20037;-61
2023/09/27 07:09:00;;;;;;;27.42;8.60;;;;;;;10.76;100.00;94491.50;5031351;28;20490;-61
2023/09/27 07:11:27;;;;;;;34.35;8.82;;;;;;;11.67;100.00;94493.09;5032098;28;20041;-61
2023/09/27 07:13:54;;;;;;;17.00;8.17;;;;;;;12.13;100.00;94494.59;5030006;28;20424;-61
2023/09/27 07:16:27;;;;;;;14.85;7.95;;;;;;;12.66;100.00;94480.56;5031991;28;20033;-61
2023/09/27 07:18:56;;;;;;;14.40;8.15;;;;;;;13.46;100.00;94475.38;5030011;28;20046;-61
2023/09/27 07:21:24;;;;;;;12.63;7.68;;;;;;;14.92;100.00;94468.91;5031782;28;20045;-61
2023/09/27 07:23:52;;;;;;;10.35;6.80;;;;;;;16.33;100.00;94466.88;5031296;28;20048;-62
2023/09/27 07:26:20;;;;;;;11.33;7.23;;;;;;;16.85;100.00;94473.31;5031695;28;20433;-62
2023/09/27 07:28:47;;;;;;;10.65;6.90;;;;;;;15.96;100.00;94474.66;5031031;28;20055;-62
2023/09/27 07:31:15;;;;;;;9.40;6.50;;;;;;;17.32;100.00;94474.63;5031858;28;20049;-62
2023/09/27 07:33:52;;;;;;;10.13;6.72;;;;;;;17.33;100.00;94476.97;5031611;28;20041;-60
2023/09/27 07:36:22;;;;;;;10.70;6.93;;;;;;;17.90;100.00;94479.84;5030731;28;20414;-59
2023/09/27 07:38:49;;;;;;;10.87;6.80;;;;;;;17.22;100.00;94482.06;5030142;28;20052;-59
2023/09/27 07:41:16;;;;;;;12.07;7.18;;;;;;;17.25;100.00;94478.41;5031335;28;20038;-59
2023/09/27 07:43:43;;;;;;;10.88;6.80;;;;;;;18.32;99.91;94473.25;5030822;28;20060;-60
2023/09/27 07:46:12;;;;;;;9.70;6.85;;;;;;;20.64;86.16;94467.09;5030697;28;20736;-61
2023/09/27 07:48:41;;;;;;;8.88;6.80;;;;;;;22.12;75.84;94464.38;5031161;28;20044;-58
2023/09/27 07:51:19;;;;;;;8.40;6.37;;;;;;;23.27;66.18;94453.47;5030705;28;20041;-61
2023/09/27 07:53:46;;;;;;;8.70;6.82;;;;;;;23.56;64.76;94449.03;5030529;28;20053;-60
2023/09/27 07:56:20;;;;;;;10.23;7.10;;;;;;;24.72;61.88;94447.41;5030992;28;20536;-60
2023/09/27 07:58:52;;;;;;;11.50;6.78;;;;;;;25.96;56.28;94447.56;5030492;28;20057;-60
2023/09/27 08:01:20;;;;;;;8.55;6.57;;;;;;;26.11;55.07;94447.38;5031106;28;20043;-61
2023/09/27 08:03:49;;;;;;;8.97;6.80;;;;;;;26.58;51.79;94450.63;5030488;28;20053;-59
2023/09/27 08:06:17;;;;;;;9.23;7.00;;;;;;;26.36;51.42;94440.06;5030942;28;20037;-60
2023/09/27 08:08:44;;;;;;;10.10;6.95;;;;;;;26.79;51.77;94439.91;5030641;28;20045;-60
2023/09/27 08:11:13;;;;;;;8.68;6.70;;;;;;;27.60;49.47;94433.75;5030073;28;20861;-61
2023/09/27 08:13:40;;;;;;;9.13;6.85;;;;;;;28.19;46.30;94437.44;5030571;28;20509;-60
2023/09/27 08:16:07;;;;;;;8.00;6.43;;;;;;;27.95;46.25;94430.38;5030424;28;20037;-61
2023/09/27 08:18:35;;;;;;;10.23;6.72;;;;;;;28.48;44.98;94428.34;5030805;28;20049;-60
2023/09/27 08:21:02;;;;;;;9.07;7.15;;;;;;;29.47;43.78;94429.44;5029871;28;20081;-61
2023/09/27 08:23:28;;;;;;;11.85;7.68;;;;;;;27.18;45.64;94432.75;5030630;28;20049;-61
2023/09/27 08:25:55;;;;;;;10.57;7.03;;;;;;;28.81;44.14;94428.69;5029917;28;20052;-60
2023/09/27 08:28:23;;;;;;;12.97;8.40;;;;;;;27.53;46.35;94420.97;5030510;28;20042;-60
2023/09/27 08:30:49;;;;;;;10.95;8.38;;;;;;;28.10;45.20;94418.78;5029906;28;20045;-60
2023/09/27 08:33:16;;;;;;;11.85;8.27;;;;;;;28.41;44.94;94416.81;5030480;28;20502;-61
2023/09/27 08:35:43;;;;;;;10.85;7.88;;;;;;;29.06;43.84;94419.00;5030299;28;20051;-61
2023/09/27 08:38:10;;;;;;;11.13;7.97;;;;;;;31.16;40.92;94411.69;5029598;28;20670;-60
2023/09/27 08:40:37;;;;;;;12.27;8.10;;;;;;;31.18;39.80;94406.25;5030346;28;20040;-61
2023/09/27 08:43:05;;;;;;;12.35;8.10;;;;;;;31.25;39.70;94414.13;5029655;28;20420;-61
2023/09/27 08:45:37;;;;;;;12.50;8.70;;;;;;;29.37;42.79;94400.00;5030402;28;20037;-61
2023/09/27 08:48:05;;;;;;;11.25;8.20;;;;;;;29.84;43.26;94404.69;5029626;28;20037;-61
2023/09/27 08:50:34;;;;;;;11.65;8.13;;;;;;;28.25;46.94;94405.13;5029119;28;20076;-60
2023/09/27 08:53:01;;;;;;;11.50;8.33;;;;;;;28.71;47.05;94387.94;5029525;28;20049;-61
2023/09/27 08:55:27;;;;;;;10.40;8.10;;;;;;;29.93;44.57;94386.59;5030103;28;20041;-61
2023/09/27 08:57:55;;;;;;;11.35;8.25;;;;;;;29.72;44.35;94378.59;5028962;28;20041;-60
2023/09/27 09:00:26;;;;;;;12.15;8.80;;;;;;;29.40;45.54;94378.38;5030319;28;20429;-61
2023/09/27 09:02:58;;;;;;;11.65;7.72;;;;;;;31.45;41.79;94373.06;5029353;28;20049;-61
2023/09/27 09:05:28;;;;;;;11.70;7.43;;;;;;;32.06;41.31;94370.38;5029844;28;20034;-61
2023/09/27 09:07:57;;;;;;;11.55;7.80;;;;;;;30.78;41.61;94375.66;5029037;28;20499;-62
2023/09/27 09:10:23;;;;;;;12.75;7.80;;;;;;;32.57;41.20;94363.63;5029912;28;20041;-61
2023/09/27 09:12:52;;;;;;;11.75;7.60;;;;;;;32.72;37.86;94357.34;5029191;28;20079;-61
2023/09/27 09:15:39;;;;;;;9.93;6.90;;;;;;;34.61;35.20;94362.69;5029815;28;20052;-61
2023/09/27 09:18:28;;;;;;;8.70;6.60;;;;;;;33.98;35.63;94362.97;5029416;28;20051;-61
2023/09/27 09:20:59;;;;;;;8.80;6.07;;;;;;;33.49;35.27;94361.69;5028980;28;20048;-61
2023/09/27 09:23:36;;;;;;;7.75;5.70;;;;;;;32.50;36.98;94356.53;5029615;28;20086;-61
2023/09/27 09:26:11;;;;;;;7.20;5.30;;;;;;;34.30;34.64;94351.19;5028704;28;20052;-61
2023/09/27 09:28:56;;;;;;;9.32;5.60;;;;;;;34.77;33.69;94357.81;5029397;28;20045;-62
2023/09/27 09:31:25;;;;;;;7.17;5.13;;;;;;;33.96;33.94;94346.44;5028661;28;20049;-61
2023/09/27 09:34:08;;;;;;;8.30;5.18;;;;;;;33.77;34.37;94348.81;5028749;28;20396;-61
2023/09/27 09:36:36;;;;;;;6.20;5.00;;;;;;;34.56;33.19;94341.59;5044690;28;20045;-62
2023/09/27 09:39:13;;;;;;;6.97;4.95;;;;;;;33.58;33.55;94346.16;5027505;28;20058;-61
2023/09/27 09:41:45;;;;;;;8.57;5.47;;;;;;;34.03;33.90;94333.56;5028658;28;20053;-61
2023/09/27 09:44:18;;;;;;;7.20;4.83;;;;;;;35.33;31.63;94336.03;5028531;28;20844;-61
2023/09/27 09:46:45;;;;;;;5.25;4.22;;;;;;;36.06;30.56;94340.50;5028680;28;20045;-62
2023/09/27 09:49:16;;;;;;;6.53;4.50;;;;;;;36.11;29.86;94333.84;5029370;28;20037;-62
2023/09/27 09:51:47;;;;;;;6.80;4.75;;;;;;;33.65;32.51;94330.50;5029262;28;20050;-62
2023/09/27 09:54:46;;;;;;;5.70;4.50;;;;;;;32.98;33.88;94322.34;5028024;28;20314;-61
2023/09/27 09:57:19;;;;;;;6.97;4.57;;;;;;;33.90;32.99;94322.28;5027941;28;20058;-62
2023/09/27 10:00:25;;;;;;;5.40;3.85;;;;;;;32.76;33.93;94327.28;5028606;28;20076;-61
2023/09/27 10:03:04;;;;;;;6.57;4.18;;;;;;;33.62;32.54;94326.69;5028256;28;20406;-61
2023/09/27 10:05:37;;;;;;;6.55;3.83;;;;;;;34.35;32.47;94312.44;5027781;28;20038;-62
2023/09/27 10:08:08;;;;;;;4.93;3.50;;;;;;;36.14;30.64;94312.69;5026885;28;20046;-62
2023/09/27 10:10:36;;;;;;;6.27;3.70;;;;;;;36.61;29.39;94316.13;5028933;28;20056;-62
2023/09/27 10:13:06;;;;;;;5.00;3.50;;;;;;;31.70;34.27;94316.13;5028394;28;20045;-62
2023/09/27 10:15:34;;;;;;;5.38;3.40;;;;;;;29.65;35.77;94329.00;5029146;28;20049;-62
2023/09/27 10:18:23;;;;;;;5.80;3.60;;;;;;;30.43;36.20;94322.91;5028268;28;20050;-61
2023/09/27 10:21:03;;;;;;;5.25;3.60;;;;;;;28.74;38.73;94314.22;5028375;28;20045;-61
2023/09/27 10:23:47;;;;;;;5.63;3.37;;;;;;;30.86;36.96;94322.72;5028706;28;20061;-61
2023/09/27 10:26:22;;;;;;;4.55;3.00;;;;;;;30.54;35.88;94317.06;5027989;28;20389;-61
2023/09/27 10:29:03;;;;;;;4.75;3.28;;;;;;;29.34;37.48;94313.41;5028252;28;20100;-61
2023/09/27 10:31:36;;;;;;;4.25;3.05;;;;;;;31.44;34.83;94306.28;5028812;28;20045;-62
2023/09/27 10:34:23;;;;;;;6.05;3.05;;;;;;;29.24;37.94;94310.19;5028055;28;20048;-62
2023/09/27 10:36:50;;;;;;;4.73;3.13;;;;;;;28.67;38.20;94304.25;5027685;28;20065;-62
2023/09/27 10:39:30;;;;;;;5.10;2.88;;;;;;;29.05;36.86;94307.25;5028631;28;20486;-61
2023/09/27 10:41:57;;;;;;;5.35;3.00;;;;;;;28.82;37.57;94300.28;5043294;28;20048;-63
2023/09/27 10:44:36;;;;;;;4.72;2.70;;;;;;;30.36;35.47;94298.78;5028522;28;20041;-62
2023/09/27 10:47:04;;;;;;;4.95;3.10;;;;;;;27.44;40.26;94297.97;5027747;28;20060;-63
2023/09/27 10:49:40;;;;;;;6.07;3.00;;;;;;;31.87;35.09;94279.63;5028355;28;20049;-62
2023/09/27 10:52:17;;;;;;;4.45;2.80;;;;;;;33.13;33.52;94279.84;5027679;28;20126;-62
2023/09/27 10:54:45;;;;;;;3.95;2.65;;;;;;;34.77;30.34;94273.06;5028528;28;20053;-63
2023/09/27 10:57:12;;;;;;;5.45;2.75;;;;;;;36.45;27.88;94270.47;5027036;28;20063;-62
2023/09/27 10:59:41;;;;;;;3.75;2.40;;;;;;;32.51;30.07;94274.91;5028578;28;20041;-63
2023/09/27 11:02:08;;;;;;;4.63;2.60;;;;;;;31.25;32.25;94269.53;5027923;28;20051;-62
2023/09/27 11:04:36;;;;;;;5.57;2.78;;;;;;;30.19;34.22;94270.72;5028538;28;20081;-61
2023/09/27 11:07:03;;;;;;;5.13;2.90;;;;;;;29.60;34.65;94269.66;5027725;28;20159;-62
2023/09/27 11:09:30;;;;;;;4.10;2.72;;;;;;;29.60;34.86;94269.66;5028613;28;20043;-62
2023/09/27 11:11:59;;;;;;;4.47;2.50;;;;;;;32.05;31.17;94249.59;5027536;28;20103;-62
2023/09/27 11:14:27;;;;;;;3.80;2.43;;;;;;;34.42;28.93;94252.63;5031850;28;20046;-63
2023/09/27 11:16:53;;;;;;;3.55;2.45;;;;;;;30.49;30.85;94254.84;5031428;28;20045;-62
2023/09/27 11:19:29;;;;;;;3.88;2.47;;;;;;;30.31;31.64;94251.50;5031736;28;20046;-60
2023/09/27 11:21:57;;;;;;;4.35;2.40;;;;;;;28.92;32.95;94252.69;5031118;28;20049;-62
2023/09/27 11:24:35;;;;;;;3.30;2.25;;;;;;;29.03;31.77;94244.84;5031513;28;20041;-61
2023/09/27 11:27:02;;;;;;;3.40;2.30;;;;;;;29.16;31.87;94241.41;5030949;28;20574;-61
2023/09/27 11:29:28;;;;;;;4.28;2.60;;;;;;;27.48;34.18;94242.09;5031836;28;20057;-61
2023/09/27 11:31:58;;;;;;;5.25;2.60;;;;;;;28.21;33.38;94240.16;5030987;28;20050;-62